createdAt,value
2022-12-05T00:00:09.648Z,3.6
2022-12-05T00:02:15.400Z,3.6
2022-12-05T00:06:29.790Z,3.6
2022-12-05T00:08:35.461Z,3.6
2022-12-05T00:09:39.848Z,3.7
2022-12-05T00:11:45.529Z,3.6
2022-12-05T00:15:56.895Z,3.7
2022-12-05T00:18:05.646Z,3.7
2022-12-05T00:20:11.309Z,3.6
2022-12-05T00:22:16.989Z,3.6
2022-12-05T00:24:22.677Z,3.6
2022-12-05T00:26:28.360Z,3.6
2022-12-05T00:28:34.055Z,3.6
2022-12-05T00:30:39.756Z,3.6
2022-12-05T00:32:48.471Z,3.5
2022-12-05T00:34:54.181Z,3.6
2022-12-05T00:36:59.832Z,3.7
2022-12-05T00:39:05.508Z,3.6
2022-12-05T00:43:16.885Z,3.6
2022-12-05T00:45:22.563Z,3.6
2022-12-05T00:49:36.959Z,3.6
2022-12-05T00:57:59.662Z,3.6
2022-12-05T01:00:05.347Z,3.6
2022-12-05T01:02:14.082Z,3.7
2022-12-05T01:04:19.797Z,3.6
2022-12-05T01:06:25.443Z,3.6
2022-12-05T01:07:29.900Z,3.6
2022-12-05T01:09:35.463Z,3.6
2022-12-05T01:13:46.827Z,3.6
2022-12-05T01:15:55.621Z,3.6
2022-12-05T01:18:01.268Z,3.6
2022-12-05T01:20:06.928Z,3.6
2022-12-05T01:22:12.574Z,3.6
2022-12-05T01:24:18.261Z,3.6
2022-12-05T01:26:23.943Z,3.6
2022-12-05T01:28:29.669Z,3.6
2022-12-05T01:30:38.370Z,3.7
2022-12-05T01:32:44.057Z,3.6
2022-12-05T01:34:49.720Z,3.6
2022-12-05T01:36:55.411Z,3.6
2022-12-05T01:39:01.069Z,3.6
2022-12-05T01:41:06.755Z,3.6
2022-12-05T01:43:12.437Z,3.6
2022-12-05T01:45:21.348Z,3.7
2022-12-05T01:47:26.827Z,3.6
2022-12-05T01:49:32.516Z,3.6
2022-12-05T01:51:38.189Z,3.6
2022-12-05T01:55:49.534Z,3.6
2022-12-05T02:00:03.963Z,3.7
2022-12-05T02:02:09.656Z,3.7
2022-12-05T02:04:15.479Z,3.7
2022-12-05T02:06:46.844Z,3.7
2022-12-05T02:10:58.221Z,3.7
2022-12-05T02:13:07.056Z,3.8
2022-12-05T02:17:18.407Z,3.8
2022-12-05T02:19:24.035Z,3.8
2022-12-05T02:21:30.050Z,3.8
2022-12-05T02:23:35.398Z,3.9
2022-12-05T02:25:41.331Z,3.8
2022-12-05T02:29:55.880Z,3.8
2022-12-05T02:36:12.740Z,3.9
2022-12-05T02:38:18.214Z,4
2022-12-05T02:42:32.656Z,4
2022-12-05T02:50:55.373Z,3.9
2022-12-05T02:53:01.069Z,4
2022-12-05T02:55:06.733Z,3.9
2022-12-05T02:57:15.502Z,4
2022-12-05T02:59:23.526Z,3.9
2022-12-05T03:01:26.910Z,4
2022-12-05T03:02:31.245Z,3.9
2022-12-05T03:04:37.038Z,4
2022-12-05T03:06:42.637Z,4
2022-12-05T03:08:48.295Z,4
2022-12-05T03:10:57.069Z,3.9
2022-12-05T03:13:02.732Z,3.9
2022-12-05T03:15:08.437Z,4
2022-12-05T03:19:19.801Z,4
2022-12-05T03:23:31.175Z,4
2022-12-05T03:25:39.942Z,4
2022-12-05T03:27:45.622Z,4
2022-12-05T03:29:51.284Z,4
2022-12-05T03:31:56.999Z,4
2022-12-05T03:40:22.790Z,4.1
2022-12-05T03:42:28.480Z,4.1
2022-12-05T03:44:34.174Z,4.1
2022-12-05T03:46:40.021Z,4.1
2022-12-05T03:48:45.523Z,4.1
2022-12-05T03:50:51.214Z,4.1
2022-12-05T03:53:19.137Z,4.1
2022-12-05T03:55:05.691Z,4.1
2022-12-05T03:57:11.346Z,4.1
2022-12-05T03:59:17.076Z,4.1
2022-12-05T04:00:21.439Z,4.1
2022-12-05T04:04:32.832Z,4.1
2022-12-05T04:06:38.510Z,4.1
2022-12-05T04:08:47.260Z,4.2
2022-12-05T04:12:58.618Z,4.2
2022-12-05T04:15:04.341Z,4.2
2022-12-05T04:17:10.024Z,4.2
2022-12-05T04:23:30.150Z,4.2
2022-12-05T04:29:47.220Z,4.2
2022-12-05T04:33:58.609Z,4.3
2022-12-05T04:36:04.291Z,4.3
2022-12-05T04:40:18.750Z,4.3
2022-12-05T04:42:24.422Z,4.3
2022-12-05T04:44:30.151Z,4.3
2022-12-05T04:46:35.884Z,4.3
2022-12-05T04:48:41.511Z,4.3
2022-12-05T04:50:47.197Z,4.3
2022-12-05T04:52:55.960Z,4.3
2022-12-05T04:55:01.695Z,4.3
2022-12-05T04:57:07.364Z,4.4
2022-12-05T04:58:11.735Z,4.3
2022-12-05T05:00:17.425Z,4.3
2022-12-05T05:02:23.146Z,4.4
2022-12-05T05:04:28.798Z,4.3
2022-12-05T05:08:43.280Z,4.3
2022-12-05T05:10:48.980Z,4.4
2022-12-05T05:15:00.362Z,4.4
2022-12-05T05:19:11.756Z,4.3
2022-12-05T05:21:20.549Z,4.4
2022-12-05T05:23:26.243Z,4.5
2022-12-05T05:25:31.950Z,4.4
2022-12-05T05:27:37.628Z,4.5
2022-12-05T05:29:43.325Z,4.5
2022-12-05T05:31:49.077Z,4.5
2022-12-05T05:33:56.344Z,4.5
2022-12-05T05:36:05.094Z,4.5
2022-12-05T05:38:10.779Z,4.4
2022-12-05T05:40:16.444Z,4.5
2022-12-05T05:42:22.153Z,4.5
2022-12-05T05:44:27.865Z,4.5
2022-12-05T05:46:33.676Z,4.5
2022-12-05T05:48:39.273Z,4.5
2022-12-05T05:50:48.041Z,4.5
2022-12-05T05:52:53.741Z,4.5
2022-12-05T05:54:59.432Z,4.5
2022-12-05T05:57:25.244Z,4.6
2022-12-05T05:59:30.925Z,4.6
2022-12-05T06:01:36.625Z,4.6
2022-12-05T06:03:45.696Z,4.6
2022-12-05T06:05:53.174Z,4.6
2022-12-05T06:07:56.976Z,4.6
2022-12-05T06:10:02.677Z,4.6
2022-12-05T06:12:08.219Z,4.6
2022-12-05T06:14:13.953Z,4.6
2022-12-05T06:16:19.700Z,4.6
2022-12-05T06:18:28.399Z,4.6
2022-12-05T06:20:34.102Z,4.6
2022-12-05T06:22:39.819Z,4.6
2022-12-05T06:26:51.242Z,4.6
2022-12-05T06:28:56.917Z,4.7
2022-12-05T06:31:02.628Z,4.6
2022-12-05T06:33:11.391Z,4.6
2022-12-05T06:35:17.116Z,4.6
2022-12-05T06:37:22.812Z,4.7
2022-12-05T06:39:28.507Z,4.7
2022-12-05T06:41:34.201Z,4.7
2022-12-05T06:43:39.914Z,4.7
2022-12-05T06:45:45.646Z,4.8
2022-12-05T06:47:54.434Z,4.8
2022-12-05T06:50:00.361Z,4.7
2022-12-05T06:52:05.817Z,4.8
2022-12-05T06:53:10.239Z,4.8
2022-12-05T06:55:15.924Z,4.7
2022-12-05T06:57:21.634Z,4.8
2022-12-05T06:59:27.323Z,4.8
2022-12-05T07:01:36.236Z,4.7
2022-12-05T07:03:41.839Z,4.8
2022-12-05T07:05:47.558Z,4.8
2022-12-05T07:07:53.309Z,4.8
2022-12-05T07:09:59.223Z,4.9
2022-12-05T07:12:04.701Z,4.9
2022-12-05T07:16:19.237Z,4.9
2022-12-05T07:22:36.290Z,4.9
2022-12-05T07:24:42.040Z,4.9
2022-12-05T07:26:47.724Z,5
2022-12-05T07:28:53.412Z,5
2022-12-05T07:31:02.224Z,5
2022-12-05T07:33:07.934Z,5
2022-12-05T07:37:19.367Z,5
2022-12-05T07:41:30.749Z,5
2022-12-05T07:43:36.464Z,5
2022-12-05T07:49:56.981Z,5
2022-12-05T07:51:01.059Z,5
2022-12-05T07:53:06.795Z,5.1
2022-12-05T07:55:12.467Z,5.1
2022-12-05T07:57:18.187Z,5.1
2022-12-05T07:59:26.998Z,5.1
2022-12-05T08:01:32.808Z,5.1
2022-12-05T08:03:38.417Z,5.1
2022-12-05T08:05:44.136Z,5.1
2022-12-05T08:07:49.892Z,5.1
2022-12-05T08:09:55.773Z,5.1
2022-12-05T08:18:27.060Z,5.1
2022-12-05T08:20:27.254Z,5.1
2022-12-05T08:22:33.000Z,5.2
2022-12-05T08:24:38.714Z,5.2
2022-12-05T08:26:44.429Z,5.2
2022-12-05T08:30:58.995Z,5.2
2022-12-05T08:33:04.687Z,5.2
2022-12-05T08:35:10.402Z,5.3
2022-12-05T08:37:16.111Z,5.2
2022-12-05T08:39:21.837Z,5.2
2022-12-05T08:41:27.563Z,5.3
2022-12-05T08:43:36.356Z,5.3
2022-12-05T08:45:42.196Z,5.3
2022-12-05T08:47:47.801Z,5.3
2022-12-05T08:50:57.926Z,5.3
2022-12-05T08:53:03.646Z,5.3
2022-12-05T08:55:09.372Z,5.3
2022-12-05T08:57:18.176Z,5.4
2022-12-05T08:59:23.844Z,5.3
2022-12-05T09:01:29.683Z,5.3
2022-12-05T09:03:35.324Z,5.4
2022-12-05T09:05:41.043Z,5.3
2022-12-05T09:07:46.762Z,5.4
2022-12-05T09:09:52.454Z,5.4
2022-12-05T09:14:06.964Z,5.4
2022-12-05T09:18:18.422Z,5.4
2022-12-05T09:22:29.854Z,5.4
2022-12-05T09:28:50.086Z,5.4
2022-12-05T09:33:01.538Z,5.4
2022-12-05T09:35:07.261Z,5.4
2022-12-05T09:37:37.658Z,5.4
2022-12-05T09:39:18.698Z,5.3
2022-12-05T09:41:27.547Z,5.4
2022-12-05T09:43:33.239Z,5.3
2022-12-05T09:48:10.505Z,5.4
2022-12-05T09:50:16.240Z,5.3
2022-12-05T09:52:21.965Z,5.3
2022-12-05T09:54:30.844Z,5.2
2022-12-05T09:56:36.461Z,5.1
2022-12-05T09:58:42.195Z,5.3
2022-12-05T10:00:47.926Z,5.3
2022-12-05T10:02:53.631Z,5.3
2022-12-05T10:05:00.950Z,5.3
2022-12-05T10:07:05.064Z,5.3
2022-12-05T10:09:13.870Z,5.4
2022-12-05T10:11:19.595Z,5.3
2022-12-05T10:13:25.321Z,5.4
2022-12-05T10:15:31.215Z,5.4
2022-12-05T10:17:36.779Z,5.3
2022-12-05T10:19:42.503Z,5.4
2022-12-05T10:21:48.245Z,5.4
2022-12-05T10:23:58.532Z,5.4
2022-12-05T10:26:02.720Z,5.4
2022-12-05T10:28:08.490Z,5.4
2022-12-05T10:34:25.644Z,5.4
2022-12-05T10:36:31.389Z,5.4
2022-12-05T10:38:40.187Z,5.4
2022-12-05T10:40:45.898Z,5.4
2022-12-05T10:42:51.642Z,5.4
2022-12-05T10:43:56.047Z,5.5
2022-12-05T10:46:01.852Z,5.4
2022-12-05T10:48:07.494Z,5.4
2022-12-05T10:50:13.207Z,5.5
2022-12-05T10:52:22.060Z,5.5
2022-12-05T10:54:27.755Z,5.5
2022-12-05T10:56:33.488Z,5.5
2022-12-05T10:58:39.237Z,5.5
2022-12-05T11:02:50.696Z,5.5
2022-12-05T11:04:56.561Z,5.5
2022-12-05T11:09:10.960Z,5.5
2022-12-05T11:13:22.396Z,5.5
2022-12-05T11:15:28.120Z,5.5
2022-12-05T11:19:39.580Z,5.5
2022-12-05T11:21:48.352Z,5.5
2022-12-05T11:23:54.080Z,5.5
2022-12-05T11:28:05.565Z,5.5
2022-12-05T11:30:11.273Z,5.5
2022-12-05T11:32:17.004Z,5.5
2022-12-05T11:34:22.737Z,5.5
2022-12-05T11:36:33.141Z,5.5
2022-12-05T11:38:38.854Z,5.5
2022-12-05T11:40:44.567Z,5.5
2022-12-05T11:41:48.993Z,5.5
2022-12-05T11:43:54.704Z,5.5
2022-12-05T11:46:00.447Z,5.5
2022-12-05T11:48:06.168Z,5.5
2022-12-05T11:50:14.978Z,5.5
2022-12-05T11:52:20.690Z,5.5
2022-12-05T11:55:02.952Z,5.6
2022-12-05T11:56:32.154Z,5.6
2022-12-05T11:58:37.860Z,5.6
2022-12-05T12:00:43.594Z,5.6
2022-12-05T12:02:49.473Z,5.5
2022-12-05T12:04:58.345Z,5.5
2022-12-05T12:11:15.338Z,5.4
2022-12-05T12:13:21.061Z,5.5
2022-12-05T12:19:41.313Z,5.4
2022-12-05T12:21:47.029Z,5.4
2022-12-05T12:23:52.752Z,5.4
2022-12-05T12:28:04.648Z,5.4
2022-12-05T12:30:09.938Z,5.4
2022-12-05T12:32:15.776Z,5.4
2022-12-05T12:38:35.912Z,5.4
2022-12-05T12:39:40.309Z,5.4
2022-12-05T12:41:46.048Z,5.4
2022-12-05T12:43:54.296Z,5.4
2022-12-05T12:48:06.260Z,5.5
2022-12-05T12:50:12.008Z,5.4
2022-12-05T12:52:17.777Z,5.4
2022-12-05T12:54:40.369Z,5.4
2022-12-05T12:56:29.211Z,5.5
2022-12-05T12:58:34.945Z,5.4
2022-12-05T13:00:40.733Z,5.4
2022-12-05T13:02:49.552Z,5.4
2022-12-05T13:04:55.300Z,5.5
2022-12-05T13:07:00.934Z,5.5
2022-12-05T13:09:06.696Z,5.4
2022-12-05T13:11:12.408Z,5.4
2022-12-05T13:13:18.110Z,5.3
2022-12-05T13:15:23.847Z,5.4
2022-12-05T13:17:32.643Z,5.4
2022-12-05T13:21:44.113Z,5.4
2022-12-05T13:23:49.813Z,5.4
2022-12-05T13:25:55.519Z,5.3
2022-12-05T13:28:01.239Z,5.4
2022-12-05T13:30:13.310Z,5.4
2022-12-05T13:32:15.817Z,5.4
2022-12-05T13:34:21.500Z,5.4
2022-12-05T13:36:27.208Z,5.4
2022-12-05T13:38:58.753Z,5.4
2022-12-05T13:41:04.480Z,5.4
2022-12-05T13:53:41.943Z,5.4
2022-12-05T13:55:47.671Z,5.4
2022-12-05T13:57:53.417Z,5.4
2022-12-05T14:00:02.447Z,5.4
2022-12-05T14:02:08.061Z,5.3
2022-12-05T14:04:13.662Z,5.4
2022-12-05T14:06:19.394Z,5.4
2022-12-05T14:08:25.295Z,5.3
2022-12-05T14:10:30.879Z,5.3
2022-12-05T14:12:36.621Z,5.3
2022-12-05T14:16:51.230Z,5.3
2022-12-05T14:21:02.620Z,5.3
2022-12-05T14:23:08.338Z,5.3
2022-12-05T14:25:14.083Z,5.3
2022-12-05T14:27:19.814Z,5.3
2022-12-05T14:31:34.323Z,5.3
2022-12-05T14:33:40.079Z,5.3
2022-12-05T14:34:44.477Z,5.3
2022-12-05T14:38:55.920Z,5.3
2022-12-05T14:41:06.704Z,5.3
2022-12-05T14:43:10.681Z,5.2
2022-12-05T14:45:16.200Z,5.2
2022-12-05T14:47:22.120Z,5.3
2022-12-05T14:49:27.631Z,5.3
2022-12-05T14:51:33.352Z,5.3
2022-12-05T14:53:39.107Z,5.3
2022-12-05T14:55:44.810Z,5.3
2022-12-05T14:59:59.552Z,5.3
2022-12-05T15:02:05.071Z,5.3
2022-12-05T15:04:10.856Z,5.3
2022-12-05T15:06:16.554Z,5.3
2022-12-05T15:08:22.299Z,5.3
2022-12-05T15:10:27.969Z,5.3
2022-12-05T15:12:36.766Z,5.3
2022-12-05T15:14:42.496Z,5.3
2022-12-05T15:18:54.069Z,5.3
2022-12-05T15:20:59.658Z,5.2
2022-12-05T15:25:11.114Z,5.3
2022-12-05T15:31:31.459Z,5.3
2022-12-05T15:32:35.794Z,5.3
2022-12-05T15:34:41.520Z,5.3
2022-12-05T15:36:47.233Z,5.3
2022-12-05T15:38:52.944Z,5.3
2022-12-05T15:41:01.734Z,5.3
2022-12-05T15:43:07.476Z,5.2
2022-12-05T15:45:13.174Z,5.3
2022-12-05T15:49:24.635Z,5.3
2022-12-05T15:51:30.364Z,5.3
2022-12-05T15:53:36.081Z,5.3
2022-12-05T15:55:44.872Z,5.3
2022-12-05T15:57:50.619Z,5.3
2022-12-05T16:02:02.198Z,5.3
2022-12-05T16:08:19.334Z,5.4
2022-12-05T16:10:29.739Z,5.3
2022-12-05T16:12:33.823Z,5.3
2022-12-05T16:18:50.980Z,5.3
2022-12-05T16:23:02.478Z,5.3
2022-12-05T16:25:11.288Z,5.3
2022-12-05T16:27:17.032Z,5.4
2022-12-05T16:29:22.767Z,5.3
2022-12-05T16:30:27.183Z,5.3
2022-12-05T16:32:32.903Z,5.3
2022-12-05T16:38:53.176Z,5.3
2022-12-05T16:40:58.917Z,5.3
2022-12-05T16:43:04.641Z,5.3
2022-12-05T16:49:21.833Z,5.3
2022-12-05T16:55:42.117Z,5.3
2022-12-05T16:59:53.548Z,5.4
2022-12-05T17:04:05.088Z,5.3
2022-12-05T17:06:10.723Z,5.3
2022-12-05T17:08:19.636Z,5.3
2022-12-05T17:10:25.311Z,5.4
2022-12-05T17:12:31.006Z,5.3
2022-12-05T17:14:36.754Z,5.3
2022-12-05T17:16:42.533Z,5.3
2022-12-05T17:18:48.186Z,5.3
2022-12-05T17:20:53.931Z,5.3
2022-12-05T17:23:02.721Z,5.3
2022-12-05T17:25:08.461Z,5.3
2022-12-05T17:27:14.178Z,5.3
2022-12-05T17:29:45.681Z,5.4
2022-12-05T17:31:51.482Z,5.4
2022-12-05T17:33:57.142Z,5.4
2022-12-05T17:36:07.561Z,5.3
2022-12-05T17:38:13.238Z,5.4
2022-12-05T17:40:18.964Z,5.4
2022-12-05T17:42:24.671Z,5.4
2022-12-05T17:44:30.418Z,5.3
2022-12-05T17:48:41.876Z,5.4
2022-12-05T17:50:50.682Z,5.3
2022-12-05T17:55:02.161Z,5.4
2022-12-05T17:59:13.599Z,5.4
2022-12-05T18:01:19.593Z,5.4
2022-12-05T18:03:25.104Z,5.4
2022-12-05T18:05:33.827Z,5.3
2022-12-05T18:07:39.658Z,5.3
2022-12-05T18:09:45.325Z,5.3
2022-12-05T18:11:51.021Z,5.4
2022-12-05T18:13:56.735Z,5.3
2022-12-05T18:16:02.514Z,5.4
2022-12-05T18:18:08.211Z,5.4
2022-12-05T18:20:17.032Z,5.4
2022-12-05T18:22:22.755Z,5.4
2022-12-05T18:24:28.492Z,5.4
2022-12-05T18:25:32.912Z,5.3
2022-12-05T18:29:44.365Z,5.4
2022-12-05T18:33:58.889Z,5.4
2022-12-05T18:36:04.634Z,5.4
2022-12-05T18:38:10.358Z,5.4
2022-12-05T18:40:16.078Z,5.4
2022-12-05T18:42:21.784Z,5.4
2022-12-05T18:44:27.513Z,5.4
2022-12-05T18:46:33.315Z,5.4
2022-12-05T18:48:45.838Z,5.4
2022-12-05T18:50:47.766Z,5.4
2022-12-05T18:52:53.501Z,5.4
2022-12-05T18:55:16.362Z,5.5
2022-12-05T18:57:04.960Z,5.4
2022-12-05T18:59:10.699Z,5.5
2022-12-05T19:03:25.233Z,5.4
2022-12-05T19:05:31.003Z,5.4
2022-12-05T19:07:36.762Z,5.5
2022-12-05T19:09:42.410Z,5.4
2022-12-05T19:13:53.911Z,5.4
2022-12-05T19:20:14.175Z,5.4
2022-12-05T19:23:24.284Z,5.4
2022-12-05T19:25:30.024Z,5.5
2022-12-05T19:27:35.761Z,5.4
2022-12-05T19:29:41.498Z,5.5
2022-12-05T19:31:50.346Z,5.5
2022-12-05T19:33:56.027Z,5.5
2022-12-05T19:36:01.754Z,5.4
2022-12-05T19:38:07.466Z,5.4
2022-12-05T19:40:13.208Z,5.4
2022-12-05T19:42:18.948Z,5.4
2022-12-05T19:44:24.666Z,5.4
2022-12-05T19:46:33.482Z,5.4
2022-12-05T19:48:39.211Z,5.4
2022-12-05T19:50:44.949Z,5.4
2022-12-05T19:52:50.698Z,5.4
2022-12-05T19:54:56.440Z,5.4
2022-12-05T19:59:07.885Z,5.3
2022-12-05T20:01:16.725Z,5.3
2022-12-05T20:03:22.456Z,5.3
2022-12-05T20:05:28.120Z,5.3
2022-12-05T20:07:33.967Z,5.3
2022-12-05T20:09:39.542Z,5.3
2022-12-05T20:11:49.522Z,5.3
2022-12-05T20:13:51.026Z,5.3
2022-12-05T20:15:59.813Z,5.4
2022-12-05T20:18:05.555Z,5.3
2022-12-05T20:20:11.279Z,5.3
2022-12-05T20:25:27.123Z,5.3
2022-12-05T20:27:32.850Z,5.3
2022-12-05T20:29:41.639Z,5.3
2022-12-05T20:31:47.372Z,5.3
2022-12-05T20:33:53.096Z,5.2
2022-12-05T20:35:58.825Z,5.3
2022-12-05T20:38:04.535Z,5.3
2022-12-05T20:40:10.281Z,5.4
2022-12-05T20:42:16.087Z,5.3
2022-12-05T20:46:30.577Z,5.3
2022-12-05T20:48:36.273Z,5.3
2022-12-05T20:50:42.006Z,5.3
2022-12-05T20:52:47.739Z,5.2
2022-12-05T20:56:59.179Z,5.3
2022-12-05T20:59:07.982Z,5.2
2022-12-05T21:01:13.796Z,5.2
2022-12-05T21:03:19.416Z,5.2
2022-12-05T21:09:36.608Z,5.2
2022-12-05T21:11:42.335Z,5.2
2022-12-05T21:13:51.107Z,5.1
2022-12-05T21:15:56.934Z,5.2
2022-12-05T21:18:02.595Z,5.2
2022-12-05T21:22:39.827Z,5.2
2022-12-05T21:26:54.334Z,5.2
2022-12-05T21:29:00.067Z,5.1
2022-12-05T21:31:05.877Z,5.2
2022-12-05T21:33:11.513Z,5.2
2022-12-05T21:35:17.254Z,5.2
2022-12-05T21:37:22.988Z,5.2
2022-12-05T21:39:28.705Z,5.2
2022-12-05T21:41:37.493Z,5.1
2022-12-05T21:43:43.217Z,5.1
2022-12-05T21:45:52.956Z,5.2
2022-12-05T21:47:54.682Z,5.2
2022-12-05T21:50:00.930Z,5.2
2022-12-05T21:56:20.643Z,5.1
2022-12-05T21:58:26.365Z,5.2
2022-12-05T22:00:32.084Z,5.2
2022-12-05T22:02:37.899Z,5.2
2022-12-05T22:04:43.539Z,5.3
2022-12-05T22:06:49.278Z,5.2
2022-12-05T22:08:55.007Z,5.3
2022-12-05T22:11:03.813Z,5.3
2022-12-05T22:13:09.554Z,5.3
2022-12-05T22:15:15.275Z,5.3
2022-12-05T22:16:19.810Z,5.3
2022-12-05T22:20:31.134Z,5.3
2022-12-05T22:22:36.876Z,5.3
2022-12-05T22:28:57.144Z,5.4
2022-12-05T22:33:08.603Z,5.3
2022-12-05T22:35:14.351Z,5.3
2022-12-05T22:37:20.092Z,5.4
2022-12-05T22:39:28.913Z,5.3
2022-12-05T22:41:34.609Z,5.3
2022-12-05T22:43:40.341Z,5.4
2022-12-05T22:45:46.069Z,5.4
2022-12-05T22:47:51.794Z,5.4
2022-12-05T22:49:57.915Z,5.4
2022-12-05T22:52:03.253Z,5.4
2022-12-05T22:54:12.076Z,5.4
2022-12-05T22:56:17.809Z,5.4
2022-12-05T22:58:23.567Z,5.4
2022-12-05T23:00:29.255Z,5.4
2022-12-05T23:04:40.724Z,5.4
2022-12-05T23:06:46.435Z,5.3
2022-12-05T23:08:55.223Z,5.3
2022-12-05T23:11:00.966Z,5.4
2022-12-05T23:13:06.671Z,5.4
2022-12-05T23:14:11.090Z,5.4
2022-12-05T23:16:16.879Z,5.4
2022-12-05T23:18:22.516Z,5.3
2022-12-05T23:20:28.236Z,5.4
2022-12-05T23:22:37.067Z,5.4
2022-12-05T23:24:42.800Z,5.4
2022-12-05T23:26:48.536Z,5.3
2022-12-05T23:31:00.087Z,5.4
2022-12-05T23:39:27.574Z,5.4
2022-12-05T23:41:33.238Z,5.4
2022-12-05T23:43:38.982Z,5.5
2022-12-05T23:45:44.677Z,5.5
2022-12-05T23:47:50.410Z,5.5
2022-12-05T23:49:56.257Z,5.5
2022-12-05T23:52:04.963Z,5.5
2022-12-05T23:54:10.688Z,5.4
2022-12-05T23:56:16.432Z,5.5
2022-12-05T23:58:22.152Z,5.4
